sensor_id;sensor_type;location;lat;lon;timestamp;P1;durP1;ratioP1;P2;durP2;ratioP2
12635;SDS011;6383;50.830;7.210;2024-03-23T00:54:34;10.68;;;6.75;;
12635;SDS011;6383;50.830;7.210;2024-03-23T00:57:03;14.02;;;7.25;;
12635;SDS011;6383;50.830;7.210;2024-03-23T00:59:31;11.77;;;7.97;;
12635;SDS011;6383;50.830;7.210;2024-03-23T01:02:00;13.55;;;7.13;;
12635;SDS011;6383;50.830;7.210;2024-03-23T01:04:26;13.38;;;7.63;;
12635;SDS011;6383;50.830;7.210;2024-03-23T01:06:53;17.00;;;9.38;;
12635;SDS011;6383;50.830;7.210;2024-03-23T01:09:21;14.68;;;10.18;;
12635;SDS011;6383;50.830;7.210;2024-03-23T01:11:51;18.00;;;9.57;;
12635;SDS011;6383;50.830;7.210;2024-03-23T01:14:17;18.95;;;10.63;;
12635;SDS011;6383;50.830;7.210;2024-03-23T01:16:45;15.07;;;10.55;;
12635;SDS011;6383;50.830;7.210;2024-03-23T01:19:13;15.43;;;10.95;;
12635;SDS011;6383;50.830;7.210;2024-03-23T01:21:41;18.92;;;11.35;;
12635;SDS011;6383;50.830;7.210;2024-03-23T01:24:09;20.35;;;10.95;;
12635;SDS011;6383;50.830;7.210;2024-03-23T01:26:38;21.35;;;12.43;;
12635;SDS011;6383;50.830;7.210;2024-03-23T01:29:06;18.65;;;11.95;;
12635;SDS011;6383;50.830;7.210;2024-03-23T01:31:34;19.92;;;10.90;;
12635;SDS011;6383;50.830;7.210;2024-03-23T01:34:01;19.23;;;11.52;;
12635;SDS011;6383;50.830;7.210;2024-03-23T01:36:29;22.98;;;12.02;;
12635;SDS011;6383;50.830;7.210;2024-03-23T01:38:57;19.65;;;12.43;;
12635;SDS011;6383;50.830;7.210;2024-03-23T01:41:26;21.35;;;11.80;;
12635;SDS011;6383;50.830;7.210;2024-03-23T01:43:52;23.45;;;10.73;;
12635;SDS011;6383;50.830;7.210;2024-03-23T01:46:24;27.55;;;11.20;;
12635;SDS011;6383;50.830;7.210;2024-03-23T01:48:52;14.90;;;9.45;;
12635;SDS011;6383;50.830;7.210;2024-03-23T01:51:20;19.15;;;10.50;;
12635;SDS011;6383;50.830;7.210;2024-03-23T01:53:47;23.70;;;10.93;;
12635;SDS011;6383;50.830;7.210;2024-03-23T01:56:15;23.42;;;10.52;;
12635;SDS011;6383;50.830;7.210;2024-03-23T01:58:43;19.98;;;10.98;;
12635;SDS011;6383;50.830;7.210;2024-03-23T02:01:12;20.90;;;11.45;;
12635;SDS011;6383;50.830;7.210;2024-03-23T02:03:41;16.05;;;9.38;;
12635;SDS011;6383;50.830;7.210;2024-03-23T02:06:09;23.35;;;10.30;;
12635;SDS011;6383;50.830;7.210;2024-03-23T02:08:36;24.52;;;10.25;;
12635;SDS011;6383;50.830;7.210;2024-03-23T02:11:03;18.80;;;9.07;;
12635;SDS011;6383;50.830;7.210;2024-03-23T02:13:31;17.50;;;7.47;;
12635;SDS011;6383;50.830;7.210;2024-03-23T02:16:00;13.13;;;6.85;;
12635;SDS011;6383;50.830;7.210;2024-03-23T02:18:29;15.65;;;7.05;;
12635;SDS011;6383;50.830;7.210;2024-03-23T02:20:59;16.42;;;7.28;;
12635;SDS011;6383;50.830;7.210;2024-03-23T02:23:28;11.65;;;6.72;;
12635;SDS011;6383;50.830;7.210;2024-03-23T02:25:55;11.20;;;5.57;;
12635;SDS011;6383;50.830;7.210;2024-03-23T02:28:23;20.52;;;7.13;;
12635;SDS011;6383;50.830;7.210;2024-03-23T02:30:51;14.73;;;6.82;;
12635;SDS011;6383;50.830;7.210;2024-03-23T02:33:19;15.85;;;5.75;;
12635;SDS011;6383;50.830;7.210;2024-03-23T02:35:48;8.55;;;4.97;;
12635;SDS011;6383;50.830;7.210;2024-03-23T02:38:17;12.50;;;4.93;;
12635;SDS011;6383;50.830;7.210;2024-03-23T02:40:46;11.52;;;5.22;;
12635;SDS011;6383;50.830;7.210;2024-03-23T02:43:13;10.55;;;4.60;;
12635;SDS011;6383;50.830;7.210;2024-03-23T02:45:41;9.13;;;4.18;;
12635;SDS011;6383;50.830;7.210;2024-03-23T02:48:11;11.63;;;4.53;;
12635;SDS011;6383;50.830;7.210;2024-03-23T02:50:39;8.07;;;3.60;;
12635;SDS011;6383;50.830;7.210;2024-03-23T02:53:07;7.43;;;3.15;;
12635;SDS011;6383;50.830;7.210;2024-03-23T02:55:35;10.30;;;3.53;;
12635;SDS011;6383;50.830;7.210;2024-03-23T02:58:05;9.77;;;3.25;;
12635;SDS011;6383;50.830;7.210;2024-03-23T03:00:33;13.75;;;3.85;;
12635;SDS011;6383;50.830;7.210;2024-03-23T03:03:03;10.80;;;3.78;;
12635;SDS011;6383;50.830;7.210;2024-03-23T03:05:31;11.52;;;3.75;;
12635;SDS011;6383;50.830;7.210;2024-03-23T03:07:59;13.48;;;3.92;;
12635;SDS011;6383;50.830;7.210;2024-03-23T03:10:26;12.95;;;3.30;;
12635;SDS011;6383;50.830;7.210;2024-03-23T03:12:54;10.13;;;3.58;;
12635;SDS011;6383;50.830;7.210;2024-03-23T03:15:24;11.77;;;3.63;;
12635;SDS011;6383;50.830;7.210;2024-03-23T03:17:53;8.35;;;2.70;;
12635;SDS011;6383;50.830;7.210;2024-03-23T03:20:20;6.50;;;2.75;;
12635;SDS011;6383;50.830;7.210;2024-03-23T03:22:49;7.57;;;3.40;;
12635;SDS011;6383;50.830;7.210;2024-03-23T03:25:16;9.82;;;3.40;;
12635;SDS011;6383;50.830;7.210;2024-03-23T03:27:44;9.65;;;3.35;;
12635;SDS011;6383;50.830;7.210;2024-03-23T03:30:12;9.95;;;2.92;;
12635;SDS011;6383;50.830;7.210;2024-03-23T03:32:43;9.57;;;2.70;;
12635;SDS011;6383;50.830;7.210;2024-03-23T03:35:11;10.23;;;2.33;;
12635;SDS011;6383;50.830;7.210;2024-03-23T03:37:40;7.30;;;2.80;;
12635;SDS011;6383;50.830;7.210;2024-03-23T03:40:07;9.32;;;2.40;;
12635;SDS011;6383;50.830;7.210;2024-03-23T03:42:35;7.28;;;2.40;;
12635;SDS011;6383;50.830;7.210;2024-03-23T03:45:04;10.85;;;3.03;;
12635;SDS011;6383;50.830;7.210;2024-03-23T03:47:34;13.63;;;3.28;;
12635;SDS011;6383;50.830;7.210;2024-03-23T03:50:04;8.80;;;2.40;;
12635;SDS011;6383;50.830;7.210;2024-03-23T03:52:32;11.50;;;2.78;;
12635;SDS011;6383;50.830;7.210;2024-03-23T03:55:01;10.77;;;2.83;;
12635;SDS011;6383;50.830;7.210;2024-03-23T03:57:30;9.80;;;2.55;;
12635;SDS011;6383;50.830;7.210;2024-03-23T03:59:57;9.18;;;2.45;;
12635;SDS011;6383;50.830;7.210;2024-03-23T04:02:26;9.00;;;2.50;;
12635;SDS011;6383;50.830;7.210;2024-03-23T04:04:53;11.45;;;2.42;;
12635;SDS011;6383;50.830;7.210;2024-03-23T04:07:23;10.63;;;2.50;;
12635;SDS011;6383;50.830;7.210;2024-03-23T04:09:50;8.63;;;2.30;;
12635;SDS011;6383;50.830;7.210;2024-03-23T04:12:19;14.73;;;3.17;;
12635;SDS011;6383;50.830;7.210;2024-03-23T04:14:47;10.45;;;2.80;;
12635;SDS011;6383;50.830;7.210;2024-03-23T04:17:14;9.80;;;3.28;;
12635;SDS011;6383;50.830;7.210;2024-03-23T04:19:41;17.45;;;3.33;;
12635;SDS011;6383;50.830;7.210;2024-03-23T04:22:11;10.88;;;2.58;;
12635;SDS011;6383;50.830;7.210;2024-03-23T04:24:39;15.07;;;2.70;;
12635;SDS011;6383;50.830;7.210;2024-03-23T04:27:07;11.77;;;2.50;;
12635;SDS011;6383;50.830;7.210;2024-03-23T04:29:35;9.60;;;2.85;;
12635;SDS011;6383;50.830;7.210;2024-03-23T04:32:03;17.10;;;3.13;;
12635;SDS011;6383;50.830;7.210;2024-03-23T04:34:31;16.30;;;4.93;;
12635;SDS011;6383;50.830;7.210;2024-03-23T04:37:01;11.50;;;3.00;;
12635;SDS011;6383;50.830;7.210;2024-03-23T04:39:29;14.40;;;3.47;;
12635;SDS011;6383;50.830;7.210;2024-03-23T04:41:59;15.48;;;4.05;;
12635;SDS011;6383;50.830;7.210;2024-03-23T04:44:28;7.80;;;3.20;;
12635;SDS011;6383;50.830;7.210;2024-03-23T04:46:57;11.70;;;3.22;;
12635;SDS011;6383;50.830;7.210;2024-03-23T04:49:26;13.35;;;3.65;;
12635;SDS011;6383;50.830;7.210;2024-03-23T04:51:53;10.85;;;4.20;;
12635;SDS011;6383;50.830;7.210;2024-03-23T04:54:22;16.30;;;4.43;;
12635;SDS011;6383;50.830;7.210;2024-03-23T04:56:51;12.05;;;3.33;;
12635;SDS011;6383;50.830;7.210;2024-03-23T04:59:24;17.20;;;4.53;;
12635;SDS011;6383;50.830;7.210;2024-03-23T05:01:51;13.90;;;3.60;;
12635;SDS011;6383;50.830;7.210;2024-03-23T05:04:20;10.35;;;3.58;;
12635;SDS011;6383;50.830;7.210;2024-03-23T05:06:47;11.20;;;4.22;;
12635;SDS011;6383;50.830;7.210;2024-03-23T05:09:14;16.73;;;4.90;;
12635;SDS011;6383;50.830;7.210;2024-03-23T05:11:42;16.63;;;4.40;;
12635;SDS011;6383;50.830;7.210;2024-03-23T05:14:11;14.23;;;4.20;;
12635;SDS011;6383;50.830;7.210;2024-03-23T05:16:42;13.60;;;4.57;;
12635;SDS011;6383;50.830;7.210;2024-03-23T05:19:10;18.98;;;4.68;;
12635;SDS011;6383;50.830;7.210;2024-03-23T05:21:37;17.58;;;4.28;;
12635;SDS011;6383;50.830;7.210;2024-03-23T05:24:05;12.80;;;3.67;;
12635;SDS011;6383;50.830;7.210;2024-03-23T05:26:34;14.65;;;4.13;;
12635;SDS011;6383;50.830;7.210;2024-03-23T05:29:03;14.13;;;3.20;;
12635;SDS011;6383;50.830;7.210;2024-03-23T05:31:31;11.23;;;3.65;;
12635;SDS011;6383;50.830;7.210;2024-03-23T05:34:00;16.65;;;3.60;;
12635;SDS011;6383;50.830;7.210;2024-03-23T05:36:27;19.10;;;3.92;;
12635;SDS011;6383;50.830;7.210;2024-03-23T05:38:56;11.73;;;3.67;;
12635;SDS011;6383;50.830;7.210;2024-03-23T05:41:24;10.30;;;2.83;;
12635;SDS011;6383;50.830;7.210;2024-03-23T05:43:53;10.45;;;2.83;;
12635;SDS011;6383;50.830;7.210;2024-03-23T05:46:21;13.57;;;3.05;;
12635;SDS011;6383;50.830;7.210;2024-03-23T05:48:50;13.52;;;3.00;;
12635;SDS011;6383;50.830;7.210;2024-03-23T05:51:18;10.32;;;3.17;;
12635;SDS011;6383;50.830;7.210;2024-03-23T05:53:45;14.20;;;3.65;;
12635;SDS011;6383;50.830;7.210;2024-03-23T05:56:12;17.30;;;3.38;;
12635;SDS011;6383;50.830;7.210;2024-03-23T05:58:41;12.55;;;3.08;;
12635;SDS011;6383;50.830;7.210;2024-03-23T06:01:09;18.17;;;4.43;;
12635;SDS011;6383;50.830;7.210;2024-03-23T06:03:38;13.50;;;3.72;;
12635;SDS011;6383;50.830;7.210;2024-03-23T06:06:04;12.98;;;3.40;;
12635;SDS011;6383;50.830;7.210;2024-03-23T06:08:37;23.45;;;4.07;;
12635;SDS011;6383;50.830;7.210;2024-03-23T06:11:05;16.10;;;3.03;;
12635;SDS011;6383;50.830;7.210;2024-03-23T06:13:34;8.10;;;2.85;;
12635;SDS011;6383;50.830;7.210;2024-03-23T06:16:01;12.85;;;3.30;;
12635;SDS011;6383;50.830;7.210;2024-03-23T06:18:30;18.98;;;3.88;;
12635;SDS011;6383;50.830;7.210;2024-03-23T06:20:59;13.88;;;2.50;;
12635;SDS011;6383;50.830;7.210;2024-03-23T06:23:28;8.82;;;2.60;;
12635;SDS011;6383;50.830;7.210;2024-03-23T06:25:57;19.55;;;2.95;;
12635;SDS011;6383;50.830;7.210;2024-03-23T06:28:25;11.02;;;2.55;;
12635;SDS011;6383;50.830;7.210;2024-03-23T06:30:53;10.75;;;2.53;;
12635;SDS011;6383;50.830;7.210;2024-03-23T06:33:22;12.15;;;3.70;;
12635;SDS011;6383;50.830;7.210;2024-03-23T06:35:51;16.30;;;3.50;;
12635;SDS011;6383;50.830;7.210;2024-03-23T06:38:19;18.65;;;2.75;;
12635;SDS011;6383;50.830;7.210;2024-03-23T06:40:47;14.55;;;3.50;;
12635;SDS011;6383;50.830;7.210;2024-03-23T06:43:18;14.40;;;4.45;;
12635;SDS011;6383;50.830;7.210;2024-03-23T06:45:52;14.63;;;3.17;;
12635;SDS011;6383;50.830;7.210;2024-03-23T06:48:19;14.82;;;2.97;;
12635;SDS011;6383;50.830;7.210;2024-03-23T06:50:47;15.13;;;3.70;;
12635;SDS011;6383;50.830;7.210;2024-03-23T06:53:16;13.63;;;2.90;;
12635;SDS011;6383;50.830;7.210;2024-03-23T06:55:49;14.82;;;3.35;;
12635;SDS011;6383;50.830;7.210;2024-03-23T06:58:23;12.05;;;3.35;;
12635;SDS011;6383;50.830;7.210;2024-03-23T07:00:52;13.02;;;3.42;;
12635;SDS011;6383;50.830;7.210;2024-03-23T07:03:21;12.80;;;3.42;;
12635;SDS011;6383;50.830;7.210;2024-03-23T07:05:49;19.63;;;3.22;;
12635;SDS011;6383;50.830;7.210;2024-03-23T07:08:17;14.30;;;2.90;;
12635;SDS011;6383;50.830;7.210;2024-03-23T07:10:47;11.60;;;3.20;;
12635;SDS011;6383;50.830;7.210;2024-03-23T07:13:16;13.60;;;4.93;;
12635;SDS011;6383;50.830;7.210;2024-03-23T07:15:52;17.45;;;3.75;;
12635;SDS011;6383;50.830;7.210;2024-03-23T07:18:22;11.95;;;3.13;;
12635;SDS011;6383;50.830;7.210;2024-03-23T07:20:54;13.40;;;2.95;;
12635;SDS011;6383;50.830;7.210;2024-03-23T07:23:24;13.75;;;3.72;;
12635;SDS011;6383;50.830;7.210;2024-03-23T07:25:58;11.45;;;3.05;;
12635;SDS011;6383;50.830;7.210;2024-03-23T07:31:06;16.25;;;3.55;;
12635;SDS011;6383;50.830;7.210;2024-03-23T07:33:36;12.52;;;3.28;;
12635;SDS011;6383;50.830;7.210;2024-03-23T07:36:05;16.88;;;3.70;;
12635;SDS011;6383;50.830;7.210;2024-03-23T07:38:35;19.15;;;4.20;;
12635;SDS011;6383;50.830;7.210;2024-03-23T07:41:03;12.90;;;4.25;;
12635;SDS011;6383;50.830;7.210;2024-03-23T07:43:33;19.35;;;4.47;;
12635;SDS011;6383;50.830;7.210;2024-03-23T07:46:01;19.67;;;4.80;;
12635;SDS011;6383;50.830;7.210;2024-03-23T07:48:31;16.42;;;5.25;;
12635;SDS011;6383;50.830;7.210;2024-03-23T07:51:00;16.27;;;4.38;;
12635;SDS011;6383;50.830;7.210;2024-03-23T07:53:30;14.07;;;5.50;;
12635;SDS011;6383;50.830;7.210;2024-03-23T07:56:01;20.88;;;5.45;;
12635;SDS011;6383;50.830;7.210;2024-03-23T07:58:30;20.30;;;6.35;;
12635;SDS011;6383;50.830;7.210;2024-03-23T08:01:03;20.98;;;5.97;;
12635;SDS011;6383;50.830;7.210;2024-03-23T08:03:32;19.60;;;5.60;;
12635;SDS011;6383;50.830;7.210;2024-03-23T08:06:08;20.25;;;6.05;;
12635;SDS011;6383;50.830;7.210;2024-03-23T08:08:36;18.77;;;6.15;;
12635;SDS011;6383;50.830;7.210;2024-03-23T08:11:04;17.75;;;5.88;;
12635;SDS011;6383;50.830;7.210;2024-03-23T08:13:33;15.60;;;6.07;;
12635;SDS011;6383;50.830;7.210;2024-03-23T08:16:02;19.60;;;6.35;;
12635;SDS011;6383;50.830;7.210;2024-03-23T08:18:33;16.63;;;5.78;;
12635;SDS011;6383;50.830;7.210;2024-03-23T08:21:02;19.55;;;6.55;;
12635;SDS011;6383;50.830;7.210;2024-03-23T08:23:31;16.85;;;7.30;;
12635;SDS011;6383;50.830;7.210;2024-03-23T08:26:01;24.17;;;6.68;;
12635;SDS011;6383;50.830;7.210;2024-03-23T08:28:30;17.15;;;5.88;;
12635;SDS011;6383;50.830;7.210;2024-03-23T08:31:00;14.90;;;6.07;;
12635;SDS011;6383;50.830;7.210;2024-03-23T08:33:28;16.42;;;5.97;;
12635;SDS011;6383;50.830;7.210;2024-03-23T08:35:58;10.85;;;4.55;;
12635;SDS011;6383;50.830;7.210;2024-03-23T08:38:26;7.68;;;3.58;;
12635;SDS011;6383;50.830;7.210;2024-03-23T08:40:58;13.05;;;3.22;;
12635;SDS011;6383;50.830;7.210;2024-03-23T08:43:27;7.35;;;2.65;;
12635;SDS011;6383;50.830;7.210;2024-03-23T08:45:53;7.30;;;2.08;;
12635;SDS011;6383;50.830;7.210;2024-03-23T08:48:21;9.27;;;2.88;;
12635;SDS011;6383;50.830;7.210;2024-03-23T08:50:59;6.97;;;2.67;;
12635;SDS011;6383;50.830;7.210;2024-03-23T08:53:27;8.40;;;2.88;;
12635;SDS011;6383;50.830;7.210;2024-03-23T08:55:56;11.05;;;3.15;;
12635;SDS011;6383;50.830;7.210;2024-03-23T08:58:25;7.30;;;3.58;;
12635;SDS011;6383;50.830;7.210;2024-03-23T09:00:54;8.73;;;3.30;;
12635;SDS011;6383;50.830;7.210;2024-03-23T09:03:23;13.90;;;3.67;;
12635;SDS011;6383;50.830;7.210;2024-03-23T09:05:51;7.82;;;4.28;;
12635;SDS011;6383;50.830;7.210;2024-03-23T09:08:23;11.80;;;4.88;;
12635;SDS011;6383;50.830;7.210;2024-03-23T09:10:51;17.10;;;4.72;;
12635;SDS011;6383;50.830;7.210;2024-03-23T09:13:20;13.10;;;4.93;;
12635;SDS011;6383;50.830;7.210;2024-03-23T09:15:49;10.43;;;4.88;;
12635;SDS011;6383;50.830;7.210;2024-03-23T09:18:19;15.95;;;5.75;;
12635;SDS011;6383;50.830;7.210;2024-03-23T09:20:46;17.98;;;4.85;;
12635;SDS011;6383;50.830;7.210;2024-03-23T09:23:15;11.15;;;5.07;;
12635;SDS011;6383;50.830;7.210;2024-03-23T09:25:43;15.40;;;5.43;;
12635;SDS011;6383;50.830;7.210;2024-03-23T09:28:12;13.85;;;6.53;;
12635;SDS011;6383;50.830;7.210;2024-03-23T09:30:38;19.02;;;5.72;;
12635;SDS011;6383;50.830;7.210;2024-03-23T09:33:08;15.40;;;5.03;;
12635;SDS011;6383;50.830;7.210;2024-03-23T09:35:37;16.27;;;5.18;;
12635;SDS011;6383;50.830;7.210;2024-03-23T09:38:06;7.65;;;4.80;;
12635;SDS011;6383;50.830;7.210;2024-03-23T09:40:35;15.70;;;5.18;;
12635;SDS011;6383;50.830;7.210;2024-03-23T09:43:08;13.75;;;5.40;;
12635;SDS011;6383;50.830;7.210;2024-03-23T09:45:38;14.40;;;5.05;;
12635;SDS011;6383;50.830;7.210;2024-03-23T09:48:07;13.77;;;4.35;;
12635;SDS011;6383;50.830;7.210;2024-03-23T09:50:36;15.63;;;4.15;;
12635;SDS011;6383;50.830;7.210;2024-03-23T09:53:06;15.93;;;3.97;;
12635;SDS011;6383;50.830;7.210;2024-03-23T09:55:35;12.77;;;4.18;;
12635;SDS011;6383;50.830;7.210;2024-03-23T09:58:02;17.45;;;4.25;;
12635;SDS011;6383;50.830;7.210;2024-03-23T10:00:30;13.98;;;4.03;;
12635;SDS011;6383;50.830;7.210;2024-03-23T10:02:59;11.65;;;4.40;;
12635;SDS011;6383;50.830;7.210;2024-03-23T10:05:28;10.88;;;3.97;;
12635;SDS011;6383;50.830;7.210;2024-03-23T10:07:59;14.95;;;4.15;;
12635;SDS011;6383;50.830;7.210;2024-03-23T10:10:27;15.27;;;3.53;;
12635;SDS011;6383;50.830;7.210;2024-03-23T10:12:56;11.15;;;3.15;;
12635;SDS011;6383;50.830;7.210;2024-03-23T10:15:23;10.75;;;3.22;;
12635;SDS011;6383;50.830;7.210;2024-03-23T10:17:54;8.98;;;2.95;;
12635;SDS011;6383;50.830;7.210;2024-03-23T10:20:21;12.18;;;3.00;;
12635;SDS011;6383;50.830;7.210;2024-03-23T10:22:49;9.98;;;2.80;;
12635;SDS011;6383;50.830;7.210;2024-03-23T10:25:17;12.43;;;3.15;;
12635;SDS011;6383;50.830;7.210;2024-03-23T10:27:55;11.45;;;2.42;;
12635;SDS011;6383;50.830;7.210;2024-03-23T10:30:26;10.82;;;2.83;;
12635;SDS011;6383;50.830;7.210;2024-03-23T10:32:58;14.20;;;5.95;;
12635;SDS011;6383;50.830;7.210;2024-03-23T10:35:34;15.90;;;3.88;;
12635;SDS011;6383;50.830;7.210;2024-03-23T10:38:04;18.75;;;7.28;;
12635;SDS011;6383;50.830;7.210;2024-03-23T10:40:34;10.23;;;3.15;;
12635;SDS011;6383;50.830;7.210;2024-03-23T10:43:03;9.88;;;3.00;;
12635;SDS011;6383;50.830;7.210;2024-03-23T10:45:31;11.30;;;3.63;;
12635;SDS011;6383;50.830;7.210;2024-03-23T10:48:01;6.80;;;2.30;;
12635;SDS011;6383;50.830;7.210;2024-03-23T10:50:29;4.18;;;2.17;;
12635;SDS011;6383;50.830;7.210;2024-03-23T10:52:57;6.68;;;2.10;;
12635;SDS011;6383;50.830;7.210;2024-03-23T10:55:27;4.63;;;2.05;;
12635;SDS011;6383;50.830;7.210;2024-03-23T10:57:56;2.55;;;1.40;;
12635;SDS011;6383;50.830;7.210;2024-03-23T11:00:25;4.75;;;2.28;;
12635;SDS011;6383;50.830;7.210;2024-03-23T11:02:55;7.95;;;3.13;;
12635;SDS011;6383;50.830;7.210;2024-03-23T11:05:31;6.13;;;4.68;;
12635;SDS011;6383;50.830;7.210;2024-03-23T11:07:59;7.50;;;2.33;;
12635;SDS011;6383;50.830;7.210;2024-03-23T11:10:27;16.30;;;9.93;;
12635;SDS011;6383;50.830;7.210;2024-03-23T11:12:57;5.13;;;2.78;;
12635;SDS011;6383;50.830;7.210;2024-03-23T11:15:25;3.58;;;1.92;;
12635;SDS011;6383;50.830;7.210;2024-03-23T11:18:02;3.22;;;2.42;;
12635;SDS011;6383;50.830;7.210;2024-03-23T11:20:33;5.50;;;1.45;;
12635;SDS011;6383;50.830;7.210;2024-03-23T11:23:03;5.28;;;1.73;;
12635;SDS011;6383;50.830;7.210;2024-03-23T11:25:31;4.90;;;1.60;;
12635;SDS011;6383;50.830;7.210;2024-03-23T11:28:11;7.55;;;1.90;;
12635;SDS011;6383;50.830;7.210;2024-03-23T11:30:38;5.78;;;1.85;;
12635;SDS011;6383;50.830;7.210;2024-03-23T11:33:05;8.65;;;2.00;;
12635;SDS011;6383;50.830;7.210;2024-03-23T11:35:34;5.57;;;1.90;;
12635;SDS011;6383;50.830;7.210;2024-03-23T11:38:06;5.25;;;1.95;;
12635;SDS011;6383;50.830;7.210;2024-03-23T11:40:35;7.13;;;2.70;;
12635;SDS011;6383;50.830;7.210;2024-03-23T11:43:04;7.00;;;2.13;;
12635;SDS011;6383;50.830;7.210;2024-03-23T11:45:33;9.68;;;2.92;;
12635;SDS011;6383;50.830;7.210;2024-03-23T11:48:07;6.53;;;1.88;;
12635;SDS011;6383;50.830;7.210;2024-03-23T11:50:38;7.53;;;3.03;;
12635;SDS011;6383;50.830;7.210;2024-03-23T11:53:12;10.65;;;2.35;;
12635;SDS011;6383;50.830;7.210;2024-03-23T11:55:45;7.35;;;2.55;;
12635;SDS011;6383;50.830;7.210;2024-03-23T11:58:15;7.30;;;2.35;;
12635;SDS011;6383;50.830;7.210;2024-03-23T12:00:49;10.73;;;2.28;;
12635;SDS011;6383;50.830;7.210;2024-03-23T12:03:17;3.78;;;2.67;;
12635;SDS011;6383;50.830;7.210;2024-03-23T12:05:49;4.93;;;1.83;;
12635;SDS011;6383;50.830;7.210;2024-03-23T12:08:21;7.43;;;2.42;;
12635;SDS011;6383;50.830;7.210;2024-03-23T12:10:50;6.10;;;2.78;;
12635;SDS011;6383;50.830;7.210;2024-03-23T12:13:20;6.60;;;2.20;;
12635;SDS011;6383;50.830;7.210;2024-03-23T12:15:50;14.38;;;2.80;;
12635;SDS011;6383;50.830;7.210;2024-03-23T12:18:23;8.13;;;3.33;;
12635;SDS011;6383;50.830;7.210;2024-03-23T12:20:53;8.35;;;3.10;;
12635;SDS011;6383;50.830;7.210;2024-03-23T12:23:22;10.35;;;2.88;;
12635;SDS011;6383;50.830;7.210;2024-03-23T12:25:50;3.45;;;1.80;;
12635;SDS011;6383;50.830;7.210;2024-03-23T12:28:18;3.80;;;1.60;;
12635;SDS011;6383;50.830;7.210;2024-03-23T12:30:46;3.95;;;1.30;;
12635;SDS011;6383;50.830;7.210;2024-03-23T12:33:14;5.20;;;1.88;;
12635;SDS011;6383;50.830;7.210;2024-03-23T12:35:42;8.60;;;1.58;;
12635;SDS011;6383;50.830;7.210;2024-03-23T12:38:10;4.53;;;1.40;;
12635;SDS011;6383;50.830;7.210;2024-03-23T12:40:38;4.47;;;1.50;;
12635;SDS011;6383;50.830;7.210;2024-03-23T12:43:06;5.45;;;1.63;;
12635;SDS011;6383;50.830;7.210;2024-03-23T12:45:35;5.60;;;1.60;;
12635;SDS011;6383;50.830;7.210;2024-03-23T12:48:04;4.18;;;1.80;;
12635;SDS011;6383;50.830;7.210;2024-03-23T12:50:33;3.40;;;1.38;;
12635;SDS011;6383;50.830;7.210;2024-03-23T12:53:01;4.97;;;1.67;;
12635;SDS011;6383;50.830;7.210;2024-03-23T12:55:29;4.15;;;1.10;;
12635;SDS011;6383;50.830;7.210;2024-03-23T12:57:57;1.17;;;0.90;;
12635;SDS011;6383;50.830;7.210;2024-03-23T13:00:24;2.60;;;1.10;;
12635;SDS011;6383;50.830;7.210;2024-03-23T13:02:52;2.85;;;1.10;;
12635;SDS011;6383;50.830;7.210;2024-03-23T13:05:20;5.22;;;1.80;;
12635;SDS011;6383;50.830;7.210;2024-03-23T13:07:49;3.60;;;1.23;;
12635;SDS011;6383;50.830;7.210;2024-03-23T13:10:17;2.10;;;1.10;;
12635;SDS011;6383;50.830;7.210;2024-03-23T13:12:47;1.27;;;0.90;;
12635;SDS011;6383;50.830;7.210;2024-03-23T13:15:14;1.58;;;1.30;;
12635;SDS011;6383;50.830;7.210;2024-03-23T13:17:45;2.03;;;1.05;;
12635;SDS011;6383;50.830;7.210;2024-03-23T13:20:13;1.15;;;0.55;;
12635;SDS011;6383;50.830;7.210;2024-03-23T13:22:42;1.08;;;0.55;;
12635;SDS011;6383;50.830;7.210;2024-03-23T13:25:10;1.92;;;1.10;;
12635;SDS011;6383;50.830;7.210;2024-03-23T13:27:39;3.58;;;0.85;;
12635;SDS011;6383;50.830;7.210;2024-03-23T13:30:09;1.38;;;0.90;;
12635;SDS011;6383;50.830;7.210;2024-03-23T13:32:39;2.63;;;0.75;;
12635;SDS011;6383;50.830;7.210;2024-03-23T13:35:07;0.93;;;0.93;;
12635;SDS011;6383;50.830;7.210;2024-03-23T13:37:36;2.15;;;0.73;;
12635;SDS011;6383;50.830;7.210;2024-03-23T13:40:05;2.42;;;1.00;;
12635;SDS011;6383;50.830;7.210;2024-03-23T13:42:35;2.83;;;2.10;;
12635;SDS011;6383;50.830;7.210;2024-03-23T13:45:02;2.25;;;0.82;;
12635;SDS011;6383;50.830;7.210;2024-03-23T13:47:31;3.47;;;3.17;;
12635;SDS011;6383;50.830;7.210;2024-03-23T13:49:57;6.03;;;2.13;;
12635;SDS011;6383;50.830;7.210;2024-03-23T13:52:27;2.33;;;1.05;;
12635;SDS011;6383;50.830;7.210;2024-03-23T13:54:53;3.47;;;1.30;;
12635;SDS011;6383;50.830;7.210;2024-03-23T13:57:24;6.53;;;1.38;;
12635;SDS011;6383;50.830;7.210;2024-03-23T13:59:53;3.80;;;1.30;;
12635;SDS011;6383;50.830;7.210;2024-03-23T14:02:22;4.60;;;1.15;;
12635;SDS011;6383;50.830;7.210;2024-03-23T14:04:52;6.15;;;1.73;;
12635;SDS011;6383;50.830;7.210;2024-03-23T14:07:21;3.70;;;1.20;;
12635;SDS011;6383;50.830;7.210;2024-03-23T14:09:49;7.88;;;1.60;;
12635;SDS011;6383;50.830;7.210;2024-03-23T14:12:21;3.50;;;1.50;;
12635;SDS011;6383;50.830;7.210;2024-03-23T14:14:51;4.53;;;1.83;;
12635;SDS011;6383;50.830;7.210;2024-03-23T14:17:20;4.65;;;1.70;;
12635;SDS011;6383;50.830;7.210;2024-03-23T14:19:48;4.05;;;1.77;;
12635;SDS011;6383;50.830;7.210;2024-03-23T14:22:17;4.72;;;1.65;;
12635;SDS011;6383;50.830;7.210;2024-03-23T14:24:48;5.00;;;1.60;;
12635;SDS011;6383;50.830;7.210;2024-03-23T14:27:16;3.00;;;1.90;;
12635;SDS011;6383;50.830;7.210;2024-03-23T14:29:45;6.18;;;2.92;;
12635;SDS011;6383;50.830;7.210;2024-03-23T14:32:14;4.05;;;1.67;;
12635;SDS011;6383;50.830;7.210;2024-03-23T14:34:42;4.32;;;1.63;;
12635;SDS011;6383;50.830;7.210;2024-03-23T14:37:11;4.35;;;1.50;;
12635;SDS011;6383;50.830;7.210;2024-03-23T14:39:40;4.70;;;1.92;;
12635;SDS011;6383;50.830;7.210;2024-03-23T14:42:11;4.85;;;1.58;;
12635;SDS011;6383;50.830;7.210;2024-03-23T14:44:38;5.70;;;1.63;;
12635;SDS011;6383;50.830;7.210;2024-03-23T14:47:07;3.42;;;1.20;;
12635;SDS011;6383;50.830;7.210;2024-03-23T14:49:35;2.13;;;1.15;;
12635;SDS011;6383;50.830;7.210;2024-03-23T14:52:04;4.43;;;1.75;;
12635;SDS011;6383;50.830;7.210;2024-03-23T14:54:32;3.33;;;1.08;;
12635;SDS011;6383;50.830;7.210;2024-03-23T14:57:04;3.35;;;1.25;;
12635;SDS011;6383;50.830;7.210;2024-03-23T14:59:32;7.05;;;1.73;;
12635;SDS011;6383;50.830;7.210;2024-03-23T15:02:00;2.80;;;1.50;;
12635;SDS011;6383;50.830;7.210;2024-03-23T15:04:28;3.08;;;1.15;;
12635;SDS011;6383;50.830;7.210;2024-03-23T15:06:57;2.97;;;1.33;;
12635;SDS011;6383;50.830;7.210;2024-03-23T15:09:25;2.72;;;1.08;;
12635;SDS011;6383;50.830;7.210;2024-03-23T15:11:54;3.10;;;1.15;;
12635;SDS011;6383;50.830;7.210;2024-03-23T15:14:24;4.45;;;1.25;;
12635;SDS011;6383;50.830;7.210;2024-03-23T15:16:53;4.38;;;1.40;;
12635;SDS011;6383;50.830;7.210;2024-03-23T15:19:21;6.38;;;3.35;;
12635;SDS011;6383;50.830;7.210;2024-03-23T15:21:48;4.28;;;1.48;;
12635;SDS011;6383;50.830;7.210;2024-03-23T15:24:15;1.67;;;1.00;;
12635;SDS011;6383;50.830;7.210;2024-03-23T15:26:44;7.18;;;1.27;;
12635;SDS011;6383;50.830;7.210;2024-03-23T15:29:12;3.20;;;1.20;;
12635;SDS011;6383;50.830;7.210;2024-03-23T15:31:44;2.70;;;1.23;;
12635;SDS011;6383;50.830;7.210;2024-03-23T15:34:13;1.20;;;1.00;;
12635;SDS011;6383;50.830;7.210;2024-03-23T15:36:41;3.78;;;1.35;;
12635;SDS011;6383;50.830;7.210;2024-03-23T15:39:08;2.40;;;1.15;;
12635;SDS011;6383;50.830;7.210;2024-03-23T15:41:37;4.22;;;1.88;;
12635;SDS011;6383;50.830;7.210;2024-03-23T15:44:05;5.53;;;1.65;;
12635;SDS011;6383;50.830;7.210;2024-03-23T15:46:34;6.57;;;1.63;;
12635;SDS011;6383;50.830;7.210;2024-03-23T15:49:02;2.17;;;1.35;;
12635;SDS011;6383;50.830;7.210;2024-03-23T15:51:30;2.08;;;1.45;;
12635;SDS011;6383;50.830;7.210;2024-03-23T15:53:58;4.13;;;1.98;;
12635;SDS011;6383;50.830;7.210;2024-03-23T15:56:28;4.30;;;2.63;;
12635;SDS011;6383;50.830;7.210;2024-03-23T15:58:56;5.03;;;1.75;;